• Join FlightAware (Why Join?)
  • Login
  • US Flag 
03:42AM EDT


 

Airport Tracker/Info


-or-


 

Live Flight TrackerFlight Track Log ✈ ASQ5685 ✈ 07-Dec-2013 ✈ KATL - KIAD

Flight Track Log - Related Links

Times and Time Zones

All times are in EST time to prevent confusion due to time zone crossing. See the ASQ5685 flight status page for this flight to view local times or setup timezone preferences in your user account.

Time Position Orientation Groundspeed Altitude Reporting Facility
EST Latitude Longitude Course Direction KTS MPH feet Rate Location/Type
09:46AM 33.6500 -84.4500 71° East 153 176 1,900  Level Atlanta TRACON
09:47AM 33.6667 -84.5167 287° West 226 260 3,100 1,860 Climbing Atlanta TRACON
09:48AM 33.7000 -84.5833 301° West 264 304 5,700 2,400 Climbing Atlanta TRACON
09:49AM 33.9064 -84.1072 54° Northeast  Level Estimated
09:49AM 33.7833 -84.5667 North 302 348 8,000  Level Atlanta TRACON
09:50AM 33.9961 -83.9998 53° Northeast  Level Estimated
09:51AM 34.0379 -83.8559 71° East  Level FlightAware Approximate
09:51AM 33.8125 -84.4114 77° East 297 342 10,800  Level Atlanta Center
09:52AM 34.0796 -83.7119 71° East  Level FlightAware Approximate
09:52AM 33.8128 -84.2889 90° East 339 390 12,100  Level Atlanta Center
09:53AM 33.8358 -84.1589 78° East 381 438 13,300 1,200 Climbing Atlanta Center
09:54AM 33.8631 -84.0239 76° East 399 459 14,500 1,200 Climbing Atlanta Center
09:55AM 33.8922 -83.8886 75° East 409 471 15,700 1,140 Climbing Atlanta Center
09:56AM 33.9192 -83.7508 77° East 415 478 16,800 900 Climbing Atlanta Center
09:57AM 33.9836 -83.6281 58° Northeast 426 490 17,600 600 Climbing Atlanta Center
09:58AM 34.0622 -83.5072 52° Northeast 450 518 18,100 600 Climbing Atlanta Center
09:59AM 34.1411 -83.3861 52° Northeast 450 518 18,900 780 Climbing Atlanta Center
10:00AM 34.2156 -83.2600 54° Northeast 455 524 19,700 780 Climbing Atlanta Center
10:01AM 34.2939 -83.1311 54° Northeast 465 535 20,500 720 Climbing Atlanta Center
10:02AM 34.3639 -83.0197 53° Northeast 465 535 21,200 720 Climbing Atlanta Center
10:03AM 34.4400 -82.8903 54° Northeast 465 535 22,000 780 Climbing Atlanta Center
10:04AM 34.5222 -82.7631 52° Northeast 465 535 22,800 720 Climbing Atlanta Center
10:05AM 34.6003 -82.6331 54° Northeast 472 543 23,500 540 Climbing Atlanta Center
10:06AM 34.6842 -82.5081 51° Northeast 472 543 23,900 420 Climbing Atlanta Center
10:07AM 34.7661 -82.3775 53° Northeast 472 543 24,400 480 Climbing Atlanta Center
10:08AM 34.8475 -82.2469 53° Northeast 478 550 24,900 540 Climbing Atlanta Center
10:09AM 34.9289 -82.1058 55° Northeast 484 557 25,500 540 Climbing Atlanta Center
10:10AM 35.0103 -81.9719 53° Northeast 484 557 26,000 480 Climbing Atlanta Center
10:11AM 35.0850 -81.8331 57° Northeast 484 557 26,500 480 Climbing Atlanta Center
10:12AM 35.1597 -81.6939 57° Northeast 484 557 27,000 480 Climbing Atlanta Center
10:13AM 35.2361 -81.5494 57° Northeast 489 563 27,500 480 Climbing Atlanta Center
10:14AM 35.3083 -81.4072 58° Northeast 489 563 28,000 480 Climbing Atlanta Center
10:15AM 35.3822 -81.2647 58° Northeast 489 563 28,500 480 Climbing Atlanta Center
10:16AM 35.4561 -81.1169 58° Northeast 494 568 29,000 540 Climbing Atlanta Center
10:17AM 35.5419 -80.9581 56° Northeast 502 578 29,600 540 Climbing Atlanta Center
10:18AM 35.6175 -80.8147 57° Northeast 502 578 30,100 480 Climbing Atlanta Center
10:19AM 35.6908 -80.6739 57° Northeast 502 578 30,600 420 Climbing Atlanta Center
10:20AM 35.7661 -80.5275 58° Northeast 497 572 31,000 60 Climbing Atlanta Center
10:22AM 35.9453 -80.1717 58° Northeast 502 578 31,000  Level Washington Center
10:23AM 36.0150 -80.0397 57° Northeast 507 583 31,000  Level Washington Center
10:24AM 36.0956 -79.8900 56° Northeast 512 589 31,000  Level Washington Center
10:25AM 36.1758 -79.7450 56° Northeast 511 588 31,000  Level Washington Center
10:26AM 36.2692 -79.5800 55° Northeast 516 594 31,000  Level Washington Center
10:27AM 36.3594 -79.4325 53° Northeast 529 609 31,000  Level Washington Center
10:28AM 36.4417 -79.2764 57° Northeast 536 617 31,000 -480 Level Washington Center
10:29AM 36.5189 -79.1353 56° Northeast 547 629 30,100 -1,680 Descending Washington Center
10:30AM 36.6175 -78.9664 54° Northeast 547 629 27,700 -2,340 Descending Washington Center
10:31AM 36.6947 -78.8222 56° Northeast 547 629 25,500 -1,380 Descending Washington Center
10:32AM 36.7778 -78.6700 56° Northeast 542 624 25,000 -300 Descending Washington Center
10:33AM 36.8675 -78.5075 55° Northeast 531 611 25,000  Level Washington Center
10:34AM 36.9483 -78.3597 56° Northeast 520 598 25,000  Level Washington Center
10:35AM 37.0308 -78.2169 54° Northeast 520 598 25,000 -540 Level Washington Center
10:36AM 37.1431 -78.1297 32° Northeast 480 552 24,000 -1,260 Descending Washington Center
10:37AM 37.2556 -78.0419 32° Northeast 474 545 22,500 -1,020 Descending Washington Center
10:38AM 37.3636 -77.9567 32° Northeast 464 534 22,000 -300 Descending Washington Center
10:39AM 37.4739 -77.8711 32° Northeast 464 534 22,000  Level Washington Center
10:40AM 37.5878 -77.7958 28° Northeast 464 534 22,000  Level Washington Center
10:41AM 37.7081 -77.7233 25° Northeast 464 534 22,000 -600 Level Washington Center
10:42AM 37.8114 -77.6631 25° Northeast 464 534 20,900 -2,460 Descending Washington Center
10:44AM 38.0303 -77.5372 24° Northeast 431 496 14,800 -3,120 Descending Washington Center
10:45AM 38.1208 -77.4842 25° Northeast 387 445 11,600 -2,340 Descending Washington Center
10:46AM 38.2028 -77.4361 25° Northeast 351 404 10,100 -780 Descending Washington Center
10:47AM 38.2808 -77.3903 25° Northeast 321 369 10,100 -120 Level Washington Center
10:48AM 38.3625 -77.3578 17° North 307 353 9,900 -1,080 Descending Washington Center
10:49AM 38.4458 -77.3625 357° North 296 341 8,000 -1,560 Descending Washington Center
10:50AM 38.5100 -77.3986 336° Northwest 268 308 6,800 -960 Descending Washington Center
10:51AM 38.5617 -77.4317 333° Northwest 232 267 6,100 -360 Descending Washington Center
10:52AM 38.6133 -77.4622 335° Northwest 215 247 6,100 -600 Level Washington Center
10:53AM 38.6667 -77.4667 356° North 191 220 5,100 -1,140 Descending Potomac TRACON
10:54AM 38.7167 -77.4667 360° North 180 207 4,100 -900 Descending Potomac TRACON
10:55AM 38.7667 -77.4667 360° North 169 194 3,300 -540 Descending Potomac TRACON
10:56AM 38.8000 -77.4667 360° North 154 177 3,100 -540 Descending Potomac TRACON
10:57AM 38.8500 -77.4667 360° North 148 170 2,300 -840 Descending Potomac TRACON
10:58AM 38.8833 -77.4667 360° North 126 145 1,600 -780 Descending Potomac TRACON
10:59AM 38.9167 -77.4667 360° North 121 139 900 -720 Descending Potomac TRACON